Terminal Aerodrome Forecast
Issued by NWS Charleston, WV

Current Version | Previous Version | Graphics & Text | Print | Product List | Glossary On
Versions: 1 2 3 4 5 6 7 8 9 10 11 12 13 14 15 16 17 18 19 20 21 22 23 24 25 26
000
FTUS41 KRLX 041700 RRA
TAFBKW
TAF
KBKW 041756Z 0418/0518 VRB03KT 4SM -RA BR SCT007 OVC025
      TEMPO 0418/0421 2SM -RA BR OVC008
     FM042100 33005KT 3SM -RA BR OVC007
     FM050600 34010KT 2SM -FZRAPL BR OVC005
     FM050900 35007KT 1/2SM SN FG OVC004
     FM051400 34006KT 1SM -SN BR OVC005=

USA.gov is the U.S. government's official web portal to all federal, state and local government web resources and services.